Time;durP1;ratioP1;P1;durP2;ratioP2;P2;SDS_P1;SDS_P2;PMS_P1;PMS_P2;Temp;Humidity;BMP_temperature;BMP_pressure;BME280_temperature;BME280_humidity;BME280_pressure;Samples;Min_cycle;Max_cycle;Signal;HPM_P1;HPM_P2
2022/06/17 00:01:27;;;;;;;0.20;0.20;;;20.50;67.80;;;;;;5010269;28;20406;-67
2022/06/17 00:03:54;;;;;;;0.20;0.10;;;20.60;67.90;;;;;;5010045;28;20034;-67
2022/06/17 00:06:22;;;;;;;0.10;0.05;;;20.50;68.10;;;;;;5011286;28;20048;-67
2022/06/17 00:08:52;;;;;;;0.00;0.00;;;20.40;68.10;;;;;;4993158;28;20034;-68
2022/06/17 00:11:36;;;;;;;0.00;0.00;;;20.40;68.50;;;;;;5009964;28;20037;-67
2022/06/17 00:14:09;;;;;;;0.00;0.00;;;20.30;68.80;;;;;;5010302;28;20029;-68
2022/06/17 00:16:35;;;;;;;0.00;0.00;;;20.10;69.00;;;;;;5010333;28;20041;-68
2022/06/17 00:19:01;;;;;;;0.00;0.00;;;19.90;69.90;;;;;;5009345;28;20033;-67
2022/06/17 00:21:27;;;;;;;0.17;0.13;;;19.70;70.00;;;;;;5011205;28;20044;-67
2022/06/17 00:23:53;;;;;;;0.30;0.20;;;19.30;71.40;;;;;;5011234;28;20172;-68
2022/06/17 00:26:20;;;;;;;0.00;0.00;;;19.40;71.60;;;;;;5009611;28;20114;-68
2022/06/17 00:28:46;;;;;;;0.00;0.00;;;19.30;72.00;;;;;;5009195;28;20033;-67
2022/06/17 00:31:11;;;;;;;0.00;0.00;;;19.20;71.90;;;;;;5010695;28;20068;-67
2022/06/17 00:33:37;;;;;;;0.00;0.00;;;19.20;72.10;;;;;;5010709;28;20073;-67
2022/06/17 00:36:06;;;;;;;0.10;0.10;;;19.00;72.30;;;;;;5010964;28;20124;-68
2022/06/17 00:38:35;;;;;;;0.00;0.00;;;18.90;72.90;;;;;;5009909;28;20100;-67
2022/06/17 00:41:33;;;;;;;0.05;0.05;;;18.70;73.40;;;;;;5009728;28;20026;-67
2022/06/17 00:44:24;;;;;;;0.00;0.00;;;18.60;73.80;;;;;;5010603;28;20636;-67
2022/06/17 00:47:14;;;;;;;0.20;0.20;;;18.70;73.80;;;;;;5009700;28;20029;-67
2022/06/17 00:49:49;;;;;;;0.00;0.00;;;18.70;74.30;;;;;;5008776;28;20396;-67
2022/06/17 00:52:36;;;;;;;0.32;0.32;;;18.60;74.60;;;;;;5010934;28;20030;-68
2022/06/17 00:55:17;;;;;;;0.00;0.00;;;18.50;74.80;;;;;;5009602;28;20120;-68
2022/06/17 00:57:44;;;;;;;0.98;0.13;;;18.60;74.80;;;;;;5009378;28;20394;-68
2022/06/17 01:00:23;;;;;;;0.00;0.00;;;18.50;74.90;;;;;;5008841;28;20033;-68
2022/06/17 01:02:53;;;;;;;0.00;0.00;;;18.60;75.00;;;;;;5010265;28;20117;-68
2022/06/17 01:05:25;;;;;;;0.00;0.00;;;18.60;74.80;;;;;;5004989;28;20119;-67
2022/06/17 01:08:02;;;;;;;0.13;0.13;;;18.80;74.50;;;;;;5006839;28;20033;-68
2022/06/17 01:10:29;;;;;;;0.13;0.10;;;18.80;74.80;;;;;;5006857;28;20113;-68
2022/06/17 01:13:02;;;;;;;0.00;0.00;;;18.80;74.80;;;;;;5010352;28;20026;-67
2022/06/17 01:15:31;;;;;;;0.17;0.17;;;18.60;75.00;;;;;;5005280;28;20026;-67
2022/06/17 01:17:58;;;;;;;0.10;0.10;;;18.70;75.20;;;;;;4989366;28;20034;-67
2022/06/17 01:20:27;;;;;;;0.00;0.00;;;18.50;75.50;;;;;;4988725;28;20054;-68
2022/06/17 01:22:59;;;;;;;5.10;0.70;;;18.60;75.60;;;;;;4973220;28;20121;-68
2022/06/17 01:25:37;;;;;;;0.00;0.00;;;18.60;75.50;;;;;;5009110;28;20030;-68
2022/06/17 01:28:11;;;;;;;0.00;0.00;;;18.70;75.50;;;;;;5009735;28;20045;-68
2022/06/17 01:30:42;;;;;;;0.00;0.00;;;18.70;75.60;;;;;;5008654;28;20034;-68
2022/06/17 01:33:23;;;;;;;0.00;0.00;;;18.70;75.80;;;;;;4993045;28;20058;-67
2022/06/17 01:36:04;;;;;;;;;;;18.80;75.70;;;;;;5009464;28;20034;-68
2022/06/17 01:38:32;;;;;;;0.10;0.10;;;18.80;75.90;;;;;;5008224;28;19967;-68
2022/06/17 01:41:00;;;;;;;0.05;0.05;;;18.90;75.60;;;;;;5005418;28;20700;-67
2022/06/17 01:43:57;;;;;;;0.10;0.03;;;18.90;75.60;;;;;;4989423;28;20030;-68
2022/06/17 01:46:40;;;;;;;0.28;0.28;;;18.90;75.70;;;;;;4989650;28;20031;-66
2022/06/17 01:49:14;;;;;;;0.00;0.00;;;18.90;75.80;;;;;;4988742;28;20072;-67
2022/06/17 01:51:46;;;;;;;0.10;0.10;;;19.10;75.90;;;;;;4989483;28;20033;-68
2022/06/17 01:54:23;;;;;;;0.10;0.10;;;18.90;75.70;;;;;;4989728;28;20041;-68
2022/06/17 01:56:54;;;;;;;0.00;0.00;;;19.00;76.10;;;;;;4990630;28;20034;-68
2022/06/17 01:59:29;;;;;;;;;;;19.10;76.20;;;;;;4972842;28;20030;-68
2022/06/17 02:02:00;;;;;;;0.10;0.10;;;19.00;76.40;;;;;;4990097;28;19933;-68
2022/06/17 02:04:36;;;;;;;0.00;0.00;;;19.00;76.80;;;;;;4993737;28;20065;-68
2022/06/17 02:07:34;;;;;;;3.30;1.70;;;19.10;76.60;;;;;;4992643;28;20474;-67
2022/06/17 02:10:01;;;;;;;1.08;0.95;;;19.10;76.70;;;;;;4992453;28;20030;-67
2022/06/17 02:12:29;;;;;;;0.00;0.00;;;19.10;76.80;;;;;;4992677;28;20052;-68
2022/06/17 02:14:56;;;;;;;0.00;0.00;;;19.30;76.80;;;;;;4998232;28;20022;-68
2022/06/17 02:17:28;;;;;;;2.30;0.63;;;19.40;76.60;;;;;;5011977;28;20033;-67
2022/06/17 02:19:54;;;;;;;0.00;0.00;;;19.40;76.60;;;;;;5011586;28;20046;-68
2022/06/17 02:22:25;;;;;;;0.13;0.10;;;19.50;76.50;;;;;;5012201;28;20034;-67
2022/06/17 02:24:55;;;;;;;0.00;0.00;;;19.50;76.30;;;;;;5012050;28;20498;-67
2022/06/17 02:27:22;;;;;;;0.20;0.20;;;19.40;76.70;;;;;;5012362;28;20110;-67
2022/06/17 02:29:50;;;;;;;0.00;0.00;;;19.40;76.90;;;;;;5011203;28;20052;-67
2022/06/17 02:32:18;;;;;;;0.10;0.10;;;19.40;76.90;;;;;;5011777;28;20058;-67
2022/06/17 02:34:54;;;;;;;0.20;0.20;;;19.50;76.90;;;;;;5027736;23;20159;-72
2022/06/17 02:37:21;;;;;;;0.00;0.00;;;19.60;76.80;;;;;;5010788;28;20435;-75
2022/06/17 02:39:50;;;;;;;0.00;0.00;;;19.60;76.80;;;;;;5047159;28;20029;-73
2022/06/17 02:42:18;;;;;;;0.00;0.00;;;19.40;77.10;;;;;;5047666;28;20034;-73
2022/06/17 02:44:46;;;;;;;0.32;0.32;;;19.40;77.60;;;;;;5032117;28;20045;-73
2022/06/17 02:47:12;;;;;;;0.00;0.00;;;19.40;77.70;;;;;;5032516;28;20500;-73
2022/06/17 02:49:42;;;;;;;0.00;0.00;;;19.40;77.60;;;;;;5030650;28;20038;-73
2022/06/17 02:52:18;;;;;;;0.00;0.00;;;19.50;77.50;;;;;;5031268;28;20028;-73
2022/06/17 02:54:54;;;;;;;0.00;0.00;;;19.20;77.80;;;;;;5031082;28;20052;-73
2022/06/17 02:57:25;;;;;;;0.00;0.00;;;19.40;78.10;;;;;;5014845;28;20409;-72
2022/06/17 03:00:11;;;;;;;0.00;0.00;;;19.30;78.30;;;;;;5031786;28;20059;-73
2022/06/17 03:02:51;;;;;;;42.38;0.90;;;19.30;78.40;;;;;;5032442;28;20110;-73
2022/06/17 03:05:31;;;;;;;0.00;0.00;;;19.10;79.00;;;;;;5030923;28;20072;-73
2022/06/17 03:07:59;;;;;;;2.45;0.30;;;19.20;78.70;;;;;;5030810;28;20048;-73
2022/06/17 03:10:37;;;;;;;0.00;0.00;;;18.80;80.10;;;;;;5029932;28;20029;-73
2022/06/17 03:13:15;;;;;;;0.10;0.10;;;18.50;80.80;;;;;;5030287;28;20044;-73
2022/06/17 03:15:46;;;;;;;0.00;0.00;;;18.40;81.50;;;;;;5030352;28;20124;-73
2022/06/17 03:18:13;;;;;;;0.00;0.00;;;18.40;82.00;;;;;;5032049;28;20075;-73
2022/06/17 03:20:41;;;;;;;0.10;0.10;;;18.40;82.20;;;;;;5030417;28;20021;-73
2022/06/17 03:23:19;;;;;;;0.00;0.00;;;18.50;82.40;;;;;;5030887;28;20389;-73
2022/06/17 03:26:04;;;;;;;0.00;0.00;;;18.60;82.10;;;;;;5030508;28;20037;-73
2022/06/17 03:28:38;;;;;;;0.00;0.00;;;18.60;81.90;;;;;;5013946;28;20026;-73
2022/06/17 03:31:13;;;;;;;0.10;0.10;;;18.50;82.60;;;;;;5030300;28;20029;-73
2022/06/17 03:33:53;;;;;;;0.93;0.47;;;18.30;83.50;;;;;;5031566;28;20041;-73
2022/06/17 03:36:32;;;;;;;0.00;0.00;;;18.50;83.50;;;;;;5030157;28;20041;-73
2022/06/17 03:39:02;;;;;;;0.05;0.03;;;18.70;82.80;;;;;;5029584;28;20122;-73
2022/06/17 03:41:57;;;;;;;0.00;0.00;;;18.70;82.70;;;;;;5030901;28;20140;-73
2022/06/17 03:44:33;;;;;;;0.00;0.00;;;18.90;82.60;;;;;;5029488;28;20470;-72
2022/06/17 03:47:04;;;;;;;0.00;0.00;;;18.90;82.40;;;;;;5027778;28;20029;-71
2022/06/17 03:49:41;;;;;;;0.55;0.55;;;19.00;82.10;;;;;;5028454;28;20059;-65
2022/06/17 03:52:22;;;;;;;0.00;0.00;;;19.00;82.30;;;;;;5034529;28;20033;-64
2022/06/17 03:54:48;;;;;;;0.00;0.00;;;18.70;83.00;;;;;;5029277;28;20525;-66
2022/06/17 03:57:16;;;;;;;0.00;0.00;;;18.40;84.10;;;;;;5030164;28;20040;-66
2022/06/17 03:59:47;;;;;;;0.00;0.00;;;18.10;85.50;;;;;;5028741;28;20033;-68
2022/06/17 04:02:16;;;;;;;0.63;0.45;;;17.80;86.90;;;;;;5029686;28;20034;-70
2022/06/17 04:04:49;;;;;;;0.10;0.10;;;17.80;87.60;;;;;;5029405;28;20394;-70
2022/06/17 04:07:15;;;;;;;0.20;0.15;;;17.70;88.40;;;;;;5030015;28;20029;-70
2022/06/17 04:09:45;;;;;;;0.90;0.55;;;17.70;89.20;;;;;;5030092;28;20017;-70
2022/06/17 04:12:11;;;;;;;0.00;0.00;;;17.60;89.50;;;;;;5029337;28;20371;-70
2022/06/17 04:15:00;;;;;;;0.17;0.10;;;17.60;90.00;;;;;;5030480;28;20044;-72
2022/06/17 04:17:39;;;;;;;0.10;0.10;;;17.60;90.10;;;;;;5030538;28;20033;-70
2022/06/17 04:20:33;;;;;;;0.00;0.00;;;17.60;90.30;;;;;;5028533;28;20427;-70
2022/06/17 04:23:33;;;;;;;0.22;0.17;;;17.60;90.30;;;;;;5029339;28;20087;-71
2022/06/17 04:26:20;;;;;;;1.73;0.93;;;17.50;90.70;;;;;;5027570;28;20045;-69
2022/06/17 04:29:03;;;;;;;0.00;0.00;;;17.40;91.10;;;;;;5029764;28;20041;-69
2022/06/17 04:31:32;;;;;;;0.00;0.00;;;17.40;91.40;;;;;;5029547;28;20041;-70
2022/06/17 04:34:04;;;;;;;1.17;0.65;;;17.60;91.30;;;;;;5030229;28;20378;-70
2022/06/17 04:36:39;;;;;;;0.65;0.20;;;17.50;91.60;;;;;;5030147;28;20029;-71
2022/06/17 04:39:21;;;;;;;3.90;2.00;;;17.60;91.30;;;;;;5028125;28;20371;-71
2022/06/17 04:41:55;;;;;;;0.00;0.00;;;17.20;91.80;;;;;;5030042;28;20033;-71
2022/06/17 04:44:21;;;;;;;0.10;0.10;;;17.30;92.30;;;;;;5028820;28;20083;-71
2022/06/17 04:47:05;;;;;;;0.00;0.00;;;17.40;92.30;;;;;;5030197;28;20028;-71
2022/06/17 04:49:34;;;;;;;0.08;0.08;;;17.30;92.60;;;;;;5028126;28;20026;-71
2022/06/17 04:52:04;;;;;;;0.00;0.00;;;17.50;92.80;;;;;;5023571;28;20112;-71
2022/06/17 04:54:32;;;;;;;0.10;0.10;;;17.60;92.30;;;;;;5040802;28;20029;-70
2022/06/17 04:57:02;;;;;;;0.00;0.00;;;17.70;92.00;;;;;;5049039;28;20033;-70
2022/06/17 04:59:41;;;;;;;0.00;0.00;;;17.80;92.00;;;;;;5047898;28;20037;-71
2022/06/17 05:02:26;;;;;;;0.28;0.28;;;17.80;92.10;;;;;;5048382;28;20485;-71
2022/06/17 05:04:57;;;;;;;0.05;0.05;;;17.90;91.80;;;;;;5048050;28;20103;-72
2022/06/17 05:07:25;;;;;;;;;;;18.10;91.10;;;;;;5050398;28;20024;-71
2022/06/17 05:10:22;;;;;;;0.00;0.00;;;18.30;90.70;;;;;;5047880;28;19916;-76
2022/06/17 05:13:05;;;;;;;0.10;0.10;;;18.30;90.80;;;;;;5049580;28;20044;-73
2022/06/17 05:15:30;;;;;;;0.25;0.10;;;18.40;90.90;;;;;;5037808;28;20033;-73
2022/06/17 05:17:58;;;;;;;0.30;0.30;;;18.40;90.50;;;;;;5029726;28;20116;-72
2022/06/17 05:20:25;;;;;;;71.43;1.48;;;18.40;90.60;;;;;;5042276;28;20035;-72
2022/06/17 05:23:01;;;;;;;0.00;0.00;;;18.60;90.50;;;;;;5048363;28;20052;-71
2022/06/17 05:25:35;;;;;;;0.10;0.10;;;18.60;90.40;;;;;;5048508;28;20033;-72
2022/06/17 05:28:02;;;;;;;0.65;0.45;;;18.60;90.70;;;;;;5048398;28;20048;-72
2022/06/17 05:30:39;;;;;;;0.00;0.00;;;18.60;90.40;;;;;;5047839;28;20031;-74
2022/06/17 05:33:05;;;;;;;0.38;0.30;;;18.60;90.70;;;;;;5049358;28;20411;-73
2022/06/17 05:35:31;;;;;;;0.30;0.20;;;18.80;90.10;;;;;;5047615;28;20040;-75
2022/06/17 05:37:57;;;;;;;0.55;0.55;;;18.80;89.00;;;;;;5050499;28;20036;-72
2022/06/17 05:40:26;;;;;;;0.10;0.10;;;18.90;89.60;;;;;;5051600;28;20032;-74
2022/06/17 05:42:52;;;;;;;0.03;0.03;;;18.90;89.30;;;;;;5053178;28;20392;-71
2022/06/17 05:45:23;;;;;;;0.00;0.00;;;19.00;89.40;;;;;;5053354;28;20025;-72
2022/06/17 05:47:49;;;;;;;1.80;0.85;;;19.10;89.50;;;;;;5052124;28;20032;-73
2022/06/17 05:50:17;;;;;;;0.05;0.05;;;18.90;88.10;;;;;;5039729;28;20362;-72
2022/06/17 05:52:53;;;;;;;0.28;0.15;;;19.00;88.50;;;;;;5028839;28;20040;-72
2022/06/17 05:55:21;;;;;;;0.00;0.00;;;18.90;90.00;;;;;;5033087;28;20025;-73
2022/06/17 05:57:47;;;;;;;2.72;1.35;;;18.90;88.80;;;;;;5015333;28;20030;-73
2022/06/17 06:00:16;;;;;;;0.22;0.22;;;19.10;89.20;;;;;;5032230;28;20044;-74
2022/06/17 06:02:42;;;;;;;0.35;0.35;;;19.00;88.30;;;;;;5033650;28;20048;-74
2022/06/17 06:05:11;;;;;;;0.10;0.10;;;19.10;88.20;;;;;;5052645;28;20481;-73
2022/06/17 06:07:37;;;;;;;0.63;0.63;;;19.00;87.90;;;;;;5031522;28;20029;-73
2022/06/17 06:10:04;;;;;;;0.75;0.32;;;19.00;87.90;;;;;;5032166;28;20043;-73
2022/06/17 06:15:14;;;;;;;0.00;0.00;;;19.40;86.70;;;;;;5032809;28;20041;-75
2022/06/17 06:17:45;;;;;;;0.00;0.00;;;19.20;86.40;;;;;;5032915;28;20041;-75
2022/06/17 06:20:13;;;;;;;0.00;0.00;;;19.50;85.70;;;;;;5030664;28;20033;-75
2022/06/17 06:41:04;;;;;;;0.00;0.00;;;20.00;84.20;;;;;;5012771;28;20093;-73
2022/06/17 06:43:30;;;;;;;0.00;0.00;;;19.60;84.20;;;;;;5011629;28;20057;-74
2022/06/17 06:45:56;;;;;;;0.10;0.05;;;19.70;84.50;;;;;;5011181;28;20026;-74
2022/06/17 06:48:25;;;;;;;0.22;0.10;;;19.70;84.00;;;;;;5011253;28;20099;-74
2022/06/17 06:50:52;;;;;;;0.28;0.28;;;20.00;83.60;;;;;;5044997;28;20031;-74
2022/06/17 06:53:18;;;;;;;0.70;0.38;;;20.20;83.10;;;;;;5051399;28;20025;-74
2022/06/17 06:55:44;;;;;;;0.00;0.00;;;20.40;82.10;;;;;;5051979;28;20056;-74
2022/06/17 06:58:16;;;;;;;0.40;0.40;;;20.60;81.60;;;;;;5051242;28;20024;-74
2022/06/17 07:00:56;;;;;;;0.30;0.15;;;20.70;81.30;;;;;;5051455;28;20504;-75
2022/06/17 07:03:23;;;;;;;0.45;0.45;;;20.50;81.30;;;;;;5051181;28;20032;-74
2022/06/17 07:06:05;;;;;;;0.10;0.10;;;20.70;81.20;;;;;;5050308;28;20036;-74
2022/06/17 07:08:35;;;;;;;0.32;0.32;;;20.70;80.50;;;;;;5050654;28;20021;-76
2022/06/17 07:11:02;;;;;;;0.00;0.00;;;20.90;79.70;;;;;;5043301;28;20441;-78
2022/06/17 07:13:31;;;;;;;0.00;0.00;;;20.90;79.80;;;;;;5029301;28;20033;-77
2022/06/17 07:15:57;;;;;;;0.43;0.20;;;21.00;78.80;;;;;;5027720;28;20042;-78
2022/06/17 07:18:29;;;;;;;0.00;0.00;;;21.10;78.90;;;;;;5030465;28;20500;-77
2022/06/17 07:20:58;;;;;;;0.00;0.00;;;21.20;78.40;;;;;;5047651;28;20035;-77
2022/06/17 07:23:29;;;;;;;0.57;0.30;;;21.20;78.70;;;;;;5050530;28;20056;-77
2022/06/17 07:25:58;;;;;;;0.00;0.00;;;21.30;78.40;;;;;;5050234;28;20029;-77
2022/06/17 07:28:26;;;;;;;0.08;0.08;;;21.40;77.60;;;;;;5066584;28;20481;-77
2022/06/17 07:30:54;;;;;;;0.80;0.52;;;21.30;77.40;;;;;;5049248;28;20493;-77
2022/06/17 07:33:22;;;;;;;0.25;0.25;;;21.30;77.70;;;;;;5050070;28;20021;-77
2022/06/17 07:35:53;;;;;;;0.30;0.30;;;21.60;77.70;;;;;;5049685;28;20037;-77
2022/06/17 07:41:12;;;;;;;;;;;21.80;76.50;;;;;;5050540;28;20546;-77
2022/06/17 07:43:38;;;;;;;0.00;0.00;;;21.70;76.80;;;;;;5046879;28;19920;-80
2022/06/17 07:46:05;;;;;;;0.20;0.20;;;21.90;76.10;;;;;;5029827;28;20026;-80
2022/06/17 07:48:32;;;;;;;2.65;0.47;;;22.10;74.80;;;;;;5030916;28;20028;-75
2022/06/17 07:50:58;;;;;;;0.00;0.00;;;22.10;74.30;;;;;;5047342;28;20112;-77
2022/06/17 07:53:29;;;;;;;26.05;0.40;;;22.30;74.00;;;;;;5050882;28;20021;-73
2022/06/17 07:55:58;;;;;;;0.00;0.00;;;22.30;73.50;;;;;;5049484;28;20409;-72
2022/06/17 07:58:24;;;;;;;0.85;0.38;;;22.40;73.10;;;;;;5035774;28;20048;-74
2022/06/17 08:00:50;;;;;;;0.10;0.08;;;22.20;73.10;;;;;;5028576;28;20117;-71
2022/06/17 08:03:18;;;;;;;0.00;0.00;;;22.20;73.60;;;;;;5029265;28;20480;-71
2022/06/17 08:05:48;;;;;;;0.00;0.00;;;22.30;73.20;;;;;;5043747;28;20037;-71
2022/06/17 08:08:21;;;;;;;0.00;0.00;;;22.40;73.20;;;;;;5029630;28;20132;-71
2022/06/17 08:10:49;;;;;;;0.10;0.10;;;22.60;72.40;;;;;;5029238;28;20033;-71
2022/06/17 08:13:15;;;;;;;0.00;0.00;;;22.70;72.30;;;;;;5013049;28;20022;-70
2022/06/17 08:15:42;;;;;;;0.03;0.03;;;22.70;71.70;;;;;;5029119;28;20120;-72
2022/06/17 08:18:10;;;;;;;0.00;0.00;;;22.80;71.50;;;;;;5030395;28;20029;-73
2022/06/17 08:20:37;;;;;;;2.83;0.95;;;23.00;71.00;;;;;;5030032;28;20095;-70
2022/06/17 08:23:05;;;;;;;0.00;0.00;;;23.00;71.60;;;;;;5028428;28;20041;-70
2022/06/17 08:25:33;;;;;;;0.05;0.05;;;23.10;71.50;;;;;;5029773;28;20036;-71
2022/06/17 08:28:03;;;;;;;0.20;0.15;;;23.30;71.30;;;;;;5029112;28;20026;-71
2022/06/17 08:30:34;;;;;;;0.00;0.00;;;23.40;70.40;;;;;;5028560;28;20087;-75
2022/06/17 08:33:00;;;;;;;0.32;0.30;;;23.60;70.10;;;;;;5029345;28;20025;-71
2022/06/17 08:35:35;;;;;;;0.00;0.00;;;23.50;70.40;;;;;;5035999;23;20061;-72
2022/06/17 08:38:19;;;;;;;0.00;0.00;;;23.70;69.80;;;;;;5009304;28;20367;-73
2022/06/17 08:40:58;;;;;;;0.00;0.00;;;23.50;69.70;;;;;;5009566;28;20036;-71
2022/06/17 08:43:42;;;;;;;0.00;0.00;;;23.60;69.20;;;;;;5010678;28;20026;-71
2022/06/17 08:46:25;;;;;;;0.00;0.00;;;23.80;69.30;;;;;;4996380;28;20038;-71
2022/06/17 08:49:43;;;;;;;0.00;0.00;;;23.80;68.80;;;;;;4989971;28;20030;-72
2022/06/17 08:52:35;;;;;;;0.00;0.00;;;23.80;69.00;;;;;;4987922;28;20031;-70
2022/06/17 08:55:32;;;;;;;0.00;0.00;;;23.40;67.10;;;;;;4989589;28;20057;-70
2022/06/17 08:58:00;;;;;;;0.00;0.00;;;23.30;68.20;;;;;;4989057;28;20085;-71
2022/06/17 09:01:08;;;;;;;0.17;0.08;;;23.30;68.30;;;;;;4990074;28;20049;-70
2022/06/17 09:03:52;;;;;;;0.00;0.00;;;23.50;68.30;;;;;;4986553;28;20046;-70
2022/06/17 09:07:05;;;;;;;0.30;0.20;;;23.70;67.60;;;;;;4988818;28;20027;-71
2022/06/17 09:09:56;;;;;;;0.10;0.10;;;24.00;66.80;;;;;;4971313;28;20065;-71
2022/06/17 09:12:49;;;;;;;1.35;0.40;;;24.10;64.50;;;;;;4992329;28;20034;-71
2022/06/17 09:15:45;;;;;;;0.17;0.17;;;24.10;66.20;;;;;;4993323;28;20061;-72
2022/06/17 09:18:19;;;;;;;0.10;0.05;;;24.30;65.90;;;;;;4994645;28;20494;-73
2022/06/17 09:20:50;;;;;;;1.00;0.80;;;24.30;65.90;;;;;;4994038;28;20615;-72
2022/06/17 09:23:28;;;;;;;0.00;0.00;;;24.60;66.10;;;;;;4994545;28;20080;-72
2022/06/17 09:25:56;;;;;;;0.10;0.10;;;24.80;66.30;;;;;;4993402;28;20601;-72
2022/06/17 09:28:35;;;;;;;0.00;0.00;;;25.00;65.40;;;;;;4993005;28;20061;-72
2022/06/17 09:31:16;;;;;;;0.00;0.00;;;24.80;65.20;;;;;;4992965;28;20233;-72
2022/06/17 09:34:22;;;;;;;0.10;0.10;;;25.00;64.60;;;;;;4993288;28;20061;-73
2022/06/17 09:37:07;;;;;;;0.08;0.05;;;25.30;65.40;;;;;;4993644;28;20054;-74
2022/06/17 09:39:45;;;;;;;1.20;0.50;;;25.70;63.60;;;;;;4993406;28;20069;-72
2022/06/17 09:42:44;;;;;;;0.10;0.10;;;25.20;64.30;;;;;;4993311;28;20537;-73
2022/06/17 09:45:25;;;;;;;0.00;0.00;;;25.40;64.00;;;;;;4986760;28;20081;-72
2022/06/17 09:48:03;;;;;;;5.50;0.65;;;25.70;63.70;;;;;;4992911;28;20018;-71
2022/06/17 09:50:41;;;;;;;0.13;0.10;;;25.90;63.80;;;;;;4986212;28;20519;-73
2022/06/17 09:53:39;;;;;;;0.85;0.45;;;25.80;62.40;;;;;;4989203;28;20039;-73
2022/06/17 09:56:52;;;;;;;0.00;0.00;;;26.00;61.40;;;;;;4973648;28;20110;-72
2022/06/17 09:59:32;;;;;;;0.00;0.00;;;26.10;61.40;;;;;;4971678;28;20081;-73
2022/06/17 10:02:20;;;;;;;0.00;0.00;;;26.20;62.00;;;;;;4973217;28;20109;-73
2022/06/17 10:04:47;;;;;;;0.00;0.00;;;26.40;61.20;;;;;;4973385;28;20065;-74
2022/06/17 10:07:37;;;;;;;0.13;0.13;;;26.30;61.50;;;;;;4972992;28;20801;-73
2022/06/17 10:10:35;;;;;;;;;;;26.00;60.80;;;;;;4975161;28;20410;-73
2022/06/17 10:13:48;;;;;;;3.53;1.08;;;26.00;61.10;;;;;;4981087;28;19910;-73
2022/06/17 10:19:27;;;;;;;0.03;0.03;;;26.20;61.70;;;;;;4990908;28;20098;-73
2022/06/17 10:22:31;;;;;;;0.30;0.20;;;26.40;61.30;;;;;;4993465;28;20117;-73
2022/06/17 10:25:23;;;;;;;0.00;0.00;;;26.50;61.20;;;;;;4993269;28;20463;-71
2022/06/17 10:28:13;;;;;;;0.20;0.10;;;26.50;60.70;;;;;;4993726;28;20041;-74
2022/06/17 10:31:05;;;;;;;0.00;0.00;;;26.40;60.70;;;;;;4992839;28;20101;-75
2022/06/17 10:33:33;;;;;;;0.10;0.10;;;26.50;60.90;;;;;;5002081;28;20078;-76
2022/06/17 10:36:00;;;;;;;0.30;0.20;;;26.70;60.10;;;;;;5011025;28;20049;-75
2022/06/17 10:38:35;;;;;;;0.00;0.00;;;26.90;59.90;;;;;;4988190;28;20072;-75
2022/06/17 10:41:01;;;;;;;0.05;0.05;;;26.70;60.90;;;;;;4991872;28;20023;-74
2022/06/17 10:43:44;;;;;;;0.00;0.00;;;26.70;60.00;;;;;;4993154;28;20400;-69
2022/06/17 10:46:19;;;;;;;0.00;0.00;;;27.00;59.90;;;;;;4991767;28;20042;-69
2022/06/17 10:49:12;;;;;;;0.00;0.00;;;26.80;60.30;;;;;;4990777;28;20042;-70
2022/06/17 10:51:39;;;;;;;0.10;0.00;;;27.50;61.20;;;;;;4991533;28;20074;-70
2022/06/17 10:54:23;;;;;;;0.00;0.00;;;27.80;59.20;;;;;;4991789;28;20061;-71
2022/06/17 10:57:07;;;;;;;2.53;0.47;;;27.70;58.90;;;;;;4991599;28;20442;-71
2022/06/17 10:59:42;;;;;;;0.00;0.00;;;27.50;60.40;;;;;;4990841;28;20030;-71
2022/06/17 11:02:30;;;;;;;0.00;0.00;;;28.00;59.80;;;;;;4991177;28;20029;-71
2022/06/17 11:05:05;;;;;;;0.52;0.52;;;28.00;59.10;;;;;;4992346;28;20038;-71
2022/06/17 11:07:35;;;;;;;0.22;0.20;;;28.00;59.00;;;;;;4992161;28;20033;-72
2022/06/17 11:10:17;;;;;;;3.08;2.53;;;28.30;59.20;;;;;;4991791;28;20455;-72
2022/06/17 11:12:59;;;;;;;0.20;0.20;;;28.20;58.90;;;;;;4990883;28;20088;-72
2022/06/17 11:15:44;;;;;;;0.35;0.25;;;28.40;60.00;;;;;;4976286;28;20074;-70
2022/06/17 11:18:24;;;;;;;0.28;0.10;;;28.40;59.60;;;;;;4985980;28;20054;-72
2022/06/17 11:21:02;;;;;;;0.00;0.00;;;28.40;59.80;;;;;;4990351;28;20034;-72
2022/06/17 11:23:33;;;;;;;0.03;0.03;;;28.60;59.00;;;;;;4986477;28;20403;-73
2022/06/17 11:26:37;;;;;;;0.10;0.10;;;28.80;58.70;;;;;;4990283;28;20037;-73
2022/06/17 11:29:22;;;;;;;0.30;0.22;;;28.80;58.70;;;;;;4914505;29;20047;-73
2022/06/17 11:31:49;;;;;;;0.10;0.10;;;29.30;58.10;;;;;;4931359;29;20550;-72
2022/06/17 11:34:26;;;;;;;3.40;0.28;;;29.30;57.50;;;;;;4914678;29;20055;-71
2022/06/17 11:37:24;;;;;;;0.30;0.30;;;29.00;57.60;;;;;;4931319;29;20036;-71
2022/06/17 11:40:14;;;;;;;0.00;0.00;;;29.30;58.10;;;;;;4914863;29;20166;-72
2022/06/17 11:42:50;;;;;;;0.00;0.00;;;28.60;57.30;;;;;;4916135;29;20141;-72
2022/06/17 11:45:32;;;;;;;0.03;0.03;;;28.80;58.20;;;;;;4931215;29;20042;-72
2022/06/17 11:48:26;;;;;;;0.10;0.10;;;29.00;58.10;;;;;;4916607;29;20110;-70
2022/06/17 11:51:14;;;;;;;0.00;0.00;;;29.30;58.10;;;;;;4921797;29;20401;-70
2022/06/17 11:54:08;;;;;;;0.20;0.20;;;29.80;56.50;;;;;;4911922;29;20036;-71
2022/06/17 11:56:36;;;;;;;0.10;0.10;;;30.00;56.90;;;;;;4911835;29;20032;-71
2022/06/17 11:59:15;;;;;;;0.00;0.00;;;29.70;56.70;;;;;;4951746;28;20415;-68
2022/06/17 12:02:00;;;;;;;0.13;0.10;;;29.70;56.50;;;;;;4991480;28;20026;-69
2022/06/17 12:04:35;;;;;;;0.30;0.20;;;30.50;56.50;;;;;;4976445;28;20409;-70
2022/06/17 12:07:00;;;;;;;0.00;0.00;;;31.00;56.00;;;;;;4990588;28;20072;-69
2022/06/17 12:09:31;;;;;;;0.00;0.00;;;31.10;55.10;;;;;;4990926;28;20046;-69
2022/06/17 12:12:02;;;;;;;0.35;0.35;;;30.70;53.90;;;;;;4989915;28;20058;-71
2022/06/17 12:14:58;;;;;;;0.20;0.20;;;30.90;53.90;;;;;;4927377;28;20046;-70
2022/06/17 12:17:25;;;;;;;0.55;0.30;;;31.20;53.50;;;;;;4989230;28;20042;-70
2022/06/17 12:19:51;;;;;;;0.00;0.00;;;30.70;54.60;;;;;;4989020;28;20042;-69
2022/06/17 12:22:27;;;;;;;0.90;0.80;;;31.10;53.50;;;;;;4989870;28;20034;-70
2022/06/17 12:24:59;;;;;;;0.77;0.40;;;30.50;53.60;;;;;;4989894;28;20031;-70
2022/06/17 12:27:36;;;;;;;0.30;0.13;;;30.30;55.00;;;;;;4991381;28;20031;-70
2022/06/17 12:30:11;;;;;;;0.82;0.80;;;30.10;54.30;;;;;;4990419;28;20475;-68
2022/06/17 12:32:57;;;;;;;0.30;0.22;;;29.60;55.10;;;;;;4990256;28;20026;-68
2022/06/17 12:35:56;;;;;;;0.10;0.00;;;30.10;55.70;;;;;;4989650;28;20036;-69
2022/06/17 12:38:42;;;;;;;0.00;0.00;;;29.70;55.00;;;;;;4989725;28;20077;-74
2022/06/17 12:41:39;;;;;;;0.00;0.00;;;29.90;55.60;;;;;;4989734;28;20085;-70
2022/06/17 12:44:38;;;;;;;0.32;0.32;;;30.20;53.70;;;;;;4990913;28;20446;-69
2022/06/17 12:47:25;;;;;;;0.00;0.00;;;30.70;53.90;;;;;;4990595;28;20084;-69
2022/06/17 12:53:42;;;;;;;0.20;0.20;;;30.40;54.00;;;;;;4990635;28;20030;-69
2022/06/17 12:56:17;;;;;;;0.20;0.20;;;30.50;54.30;;;;;;4991045;28;20030;-70
2022/06/17 12:58:59;;;;;;;0.00;0.00;;;30.60;54.00;;;;;;4990065;28;20088;-69
2022/06/17 13:01:55;;;;;;;0.95;0.70;;;31.20;54.50;;;;;;4990432;28;20033;-68
2022/06/17 13:04:59;;;;;;;0.82;0.22;;;31.60;53.10;;;;;;4990808;28;20038;-69
2022/06/17 13:07:25;;;;;;;0.10;0.10;;;31.80;53.10;;;;;;4990957;28;20145;-69
2022/06/17 13:13:40;;;;;;;0.10;0.10;;;31.70;52.60;;;;;;4990493;28;20057;-71
2022/06/17 13:16:29;;;;;;;0.20;0.08;;;32.10;52.50;;;;;;4990893;28;20041;-75
2022/06/17 13:19:14;;;;;;;0.13;0.10;;;31.80;52.70;;;;;;4990015;28;20030;-69
2022/06/17 13:21:47;;;;;;;0.88;0.47;;;31.80;52.60;;;;;;4990631;28;20037;-67
2022/06/17 13:24:36;;;;;;;0.25;0.13;;;32.50;52.20;;;;;;4989199;28;20042;-66
2022/06/17 13:27:43;;;;;;;0.20;0.20;;;32.50;51.30;;;;;;5005729;28;20039;-67
2022/06/17 13:30:22;;;;;;;0.17;0.10;;;33.40;50.60;;;;;;4988335;28;20049;-67
2022/06/17 13:33:03;;;;;;;0.25;0.25;;;32.40;50.30;;;;;;4990533;28;20030;-66
2022/06/17 13:35:42;;;;;;;0.00;0.00;;;32.70;51.10;;;;;;4988875;28;20038;-67
2022/06/17 13:38:16;;;;;;;0.10;0.10;;;33.70;49.70;;;;;;4989310;28;20035;-68
2022/06/17 13:41:12;;;;;;;0.00;0.00;;;33.50;49.00;;;;;;4988446;28;20076;-66
2022/06/17 13:44:11;;;;;;;0.47;0.32;;;33.90;48.70;;;;;;4989732;28;20030;-66
2022/06/17 13:47:12;;;;;;;0.00;0.00;;;32.80;48.80;;;;;;4986638;28;20046;-67
2022/06/17 13:49:50;;;;;;;0.03;0.03;;;33.80;48.70;;;;;;4988847;28;20030;-66
2022/06/17 13:52:37;;;;;;;0.05;0.05;;;33.80;48.40;;;;;;4990166;28;20035;-66
2022/06/17 13:55:38;;;;;;;0.00;0.00;;;33.20;48.20;;;;;;4989154;28;20045;-67
2022/06/17 13:58:44;;;;;;;0.00;0.00;;;34.50;48.10;;;;;;4990192;28;20113;-68
2022/06/17 14:01:21;;;;;;;0.00;0.00;;;35.00;47.00;;;;;;4978187;28;20034;-68
2022/06/17 14:04:13;;;;;;;0.47;0.30;;;34.70;46.10;;;;;;4984878;28;20030;-68
2022/06/17 14:06:50;;;;;;;0.00;0.00;;;34.80;46.50;;;;;;4985658;28;20035;-70
2022/06/17 14:09:31;;;;;;;0.10;0.10;;;33.80;46.80;;;;;;4992395;28;20092;-68
2022/06/17 14:12:00;;;;;;;0.43;0.20;;;35.00;46.00;;;;;;4993736;28;20041;-69